Time;durP1;ratioP1;P1;durP2;ratioP2;P2;SDS_P1;SDS_P2;PMS_P1;PMS_P2;Temp;Humidity;BMP_temperature;BMP_pressure;BME280_temperature;BME280_humidity;BME280_pressure;Samples;Min_cycle;Max_cycle;Signal;HPM_P1;HPM_P2
2021/05/27 00:00:33;;;;;;;11.33;10.83;;;24.50;66.40;;;;;;3621321;39;20468;-53
2021/05/27 00:03:01;;;;;;;10.23;9.83;;;24.50;66.40;;;;;;3619383;39;20479;-53
2021/05/27 00:05:28;;;;;;;10.47;10.00;;;24.50;66.40;;;;;;3610235;39;20722;-53
2021/05/27 00:07:55;;;;;;;10.30;9.80;;;24.50;66.40;;;;;;3620499;39;20486;-52
2021/05/27 00:10:24;;;;;;;10.23;9.83;;;24.50;66.40;;;;;;3621158;39;20491;-50
2021/05/27 00:12:51;;;;;;;10.23;9.90;;;24.50;66.50;;;;;;3620524;39;20950;-52
2021/05/27 00:15:20;;;;;;;10.43;10.03;;;24.50;66.40;;;;;;3621304;39;20475;-50
2021/05/27 00:17:46;;;;;;;10.57;10.13;;;24.50;66.50;;;;;;3620767;39;20475;-51
2021/05/27 00:20:14;;;;;;;10.83;10.33;;;24.50;66.50;;;;;;3620165;39;20487;-50
2021/05/27 00:22:41;;;;;;;10.90;10.40;;;24.50;66.50;;;;;;3620335;39;20486;-53
2021/05/27 00:25:10;;;;;;;10.20;9.80;;;24.50;66.50;;;;;;3620679;39;20486;-49
2021/05/27 00:27:37;;;;;;;10.03;9.63;;;24.50;66.50;;;;;;3620752;39;20487;-52
2021/05/27 00:30:05;;;;;;;11.00;10.60;;;24.50;66.50;;;;;;3620757;39;20463;-50
2021/05/27 00:32:32;;;;;;;10.77;10.27;;;24.50;66.50;;;;;;3621463;39;20564;-49
2021/05/27 00:34:59;;;;;;;10.77;10.17;;;24.50;66.50;;;;;;3612112;39;20479;-50
2021/05/27 00:37:26;;;;;;;10.60;10.17;;;24.50;66.50;;;;;;3620585;39;20528;-53
2021/05/27 00:39:52;;;;;;;11.23;10.40;;;24.50;66.50;;;;;;3621124;39;20483;-52
2021/05/27 00:42:20;;;;;;;10.03;9.63;;;24.40;66.40;;;;;;3621297;39;20564;-51
2021/05/27 00:44:58;;;;;;;11.20;10.70;;;24.40;66.40;;;;;;3620980;39;20880;-50
2021/05/27 00:47:25;;;;;;;10.50;10.10;;;24.50;66.60;;;;;;3621165;39;20564;-54
2021/05/27 00:49:52;;;;;;;10.30;9.90;;;24.40;66.50;;;;;;3620757;39;20475;-53
2021/05/27 00:52:19;;;;;;;9.53;9.13;;;24.40;66.50;;;;;;3619530;39;20487;-50
2021/05/27 00:54:46;;;;;;;10.07;9.57;;;24.40;66.50;;;;;;3622094;39;20559;-49
2021/05/27 00:57:30;;;;;;;10.57;10.13;;;24.40;66.50;;;;;;3621696;39;20486;-49
2021/05/27 00:59:57;;;;;;;10.30;9.80;;;24.40;66.50;;;;;;3621390;39;20836;-51
2021/05/27 01:02:24;;;;;;;9.87;9.47;;;24.40;66.50;;;;;;3620963;39;20464;-50
2021/05/27 01:04:50;;;;;;;10.00;9.60;;;24.40;66.50;;;;;;3621459;39;20587;-51
2021/05/27 01:07:17;;;;;;;11.30;10.63;;;24.40;66.60;;;;;;3620500;39;20479;-50
2021/05/27 01:09:44;;;;;;;9.87;9.50;;;24.40;66.70;;;;;;3621763;39;20508;-50
2021/05/27 01:12:11;;;;;;;10.63;10.23;;;24.40;66.60;;;;;;3621421;39;20881;-53
2021/05/27 01:17:24;;;;;;;10.50;10.10;;;24.40;66.60;;;;;;3620785;39;20483;-49
2021/05/27 01:19:51;;;;;;;10.60;10.20;;;24.40;66.60;;;;;;3621506;39;20486;-52
2021/05/27 01:22:20;;;;;;;10.10;9.70;;;24.40;66.70;;;;;;3621613;39;20487;-50
2021/05/27 01:24:48;;;;;;;10.80;10.40;;;24.40;66.60;;;;;;3611602;39;20490;-51
2021/05/27 01:27:15;;;;;;;10.30;9.90;;;24.40;66.70;;;;;;3621087;39;20482;-50
2021/05/27 01:29:42;;;;;;;10.57;10.17;;;24.40;66.70;;;;;;3620755;39;20475;-50
2021/05/27 01:32:09;;;;;;;10.80;10.30;;;24.40;66.70;;;;;;3620595;39;20468;-49
2021/05/27 01:34:36;;;;;;;10.30;9.90;;;24.40;66.70;;;;;;3620909;39;20727;-50
2021/05/27 01:37:04;;;;;;;10.70;10.30;;;24.40;66.70;;;;;;3603068;39;20536;-51
2021/05/27 01:39:33;;;;;;;10.80;10.40;;;24.40;66.60;;;;;;3620346;39;21075;-51
2021/05/27 01:42:00;;;;;;;10.97;10.47;;;24.40;66.70;;;;;;3620804;39;20472;-50
2021/05/27 01:44:27;;;;;;;10.67;10.27;;;24.40;66.60;;;;;;3620069;39;20522;-53
2021/05/27 01:46:56;;;;;;;10.57;10.17;;;24.40;66.70;;;;;;3610359;39;20496;-53
2021/05/27 01:49:23;;;;;;;10.43;10.03;;;24.40;66.70;;;;;;3618497;39;20483;-52
2021/05/27 01:51:51;;;;;;;10.80;10.40;;;24.40;66.70;;;;;;3611117;39;20520;-50
2021/05/27 01:54:19;;;;;;;10.63;10.23;;;24.40;66.70;;;;;;3611138;39;20479;-50
2021/05/27 01:56:46;;;;;;;10.43;10.03;;;24.40;66.70;;;;;;3620660;39;20519;-50
2021/05/27 01:59:14;;;;;;;11.03;10.53;;;24.40;66.70;;;;;;3611116;39;20468;-50
2021/05/27 02:01:44;;;;;;;10.80;10.40;;;24.40;66.70;;;;;;3611074;39;20486;-51
2021/05/27 02:04:10;;;;;;;11.07;10.60;;;24.40;66.70;;;;;;3620714;39;20471;-49
2021/05/27 02:06:37;;;;;;;11.20;10.80;;;24.40;66.70;;;;;;3620442;39;20490;-49
2021/05/27 02:09:08;;;;;;;11.40;10.90;;;24.40;66.70;;;;;;3620658;39;20474;-49
2021/05/27 02:11:40;;;;;;;10.90;10.50;;;24.40;66.70;;;;;;3611916;39;20510;-49
2021/05/27 02:14:09;;;;;;;11.37;10.87;;;24.40;66.70;;;;;;3621125;39;20537;-52
2021/05/27 02:16:37;;;;;;;10.80;10.40;;;24.40;66.70;;;;;;3610596;39;20492;-52
2021/05/27 02:19:05;;;;;;;10.97;10.57;;;24.40;66.70;;;;;;3621182;39;20596;-50
2021/05/27 02:21:35;;;;;;;11.40;10.90;;;24.40;66.80;;;;;;3611971;39;20483;-50
2021/05/27 02:24:03;;;;;;;10.50;10.17;;;24.40;66.80;;;;;;3611649;39;20681;-52
2021/05/27 02:26:30;;;;;;;11.53;11.03;;;24.30;66.70;;;;;;3620417;39;20491;-50
2021/05/27 02:29:19;;;;;;;11.10;10.60;;;24.30;66.70;;;;;;3610920;39;20471;-50
2021/05/27 02:31:46;;;;;;;11.27;10.80;;;24.30;66.70;;;;;;3620984;39;20494;-50
2021/05/27 02:34:18;;;;;;;11.10;10.70;;;24.40;66.80;;;;;;3610620;39;20491;-49
2021/05/27 02:36:47;;;;;;;11.13;10.73;;;24.30;66.70;;;;;;3620354;39;20525;-50
2021/05/27 02:39:15;;;;;;;10.80;10.30;;;24.30;66.70;;;;;;3621071;39;20849;-50
2021/05/27 02:41:46;;;;;;;10.80;10.40;;;24.30;66.70;;;;;;3611445;39;20475;-49
2021/05/27 02:44:18;;;;;;;10.47;10.07;;;24.30;66.80;;;;;;3611434;39;20478;-51
2021/05/27 02:46:50;;;;;;;10.87;10.47;;;24.30;66.80;;;;;;3611573;39;20549;-51
2021/05/27 02:49:18;;;;;;;10.60;10.20;;;24.30;66.80;;;;;;3610817;39;20539;-53
2021/05/27 02:51:47;;;;;;;11.70;11.20;;;24.30;66.80;;;;;;3620549;39;20494;-51
2021/05/27 02:54:13;;;;;;;11.25;10.85;;;24.30;66.80;;;;;;3620906;39;20475;-49
2021/05/27 02:56:42;;;;;;;11.70;11.30;;;24.30;66.80;;;;;;3620160;39;20283;-52
2021/05/27 02:59:10;;;;;;;11.63;11.13;;;24.40;66.90;;;;;;3611196;39;20479;-49
2021/05/27 03:01:40;;;;;;;11.10;10.70;;;24.30;66.70;;;;;;3610712;39;20464;-52
2021/05/27 03:04:07;;;;;;;11.30;10.90;;;24.30;66.70;;;;;;3620557;39;20947;-52
2021/05/27 03:06:35;;;;;;;11.27;10.87;;;24.40;66.80;;;;;;3620658;39;20464;-50
2021/05/27 03:09:02;;;;;;;10.77;10.37;;;24.40;66.90;;;;;;3612735;39;20540;-50
2021/05/27 03:11:29;;;;;;;11.50;10.90;;;24.30;66.70;;;;;;3622496;39;20467;-50
2021/05/27 03:13:59;;;;;;;11.73;11.27;;;24.30;66.80;;;;;;3621825;39;20475;-51
2021/05/27 03:16:32;;;;;;;12.70;12.20;;;24.30;66.80;;;;;;3612713;39;20800;-52
2021/05/27 03:18:59;;;;;;;12.43;11.80;;;24.30;66.80;;;;;;3622108;39;20495;-50
2021/05/27 03:21:25;;;;;;;12.17;11.50;;;24.30;66.80;;;;;;3621219;39;20511;-50
2021/05/27 03:23:52;;;;;;;12.23;11.83;;;24.30;66.80;;;;;;3622269;39;20813;-51
2021/05/27 03:26:20;;;;;;;12.23;11.73;;;24.30;66.80;;;;;;3621951;39;20487;-50
2021/05/27 03:28:48;;;;;;;11.93;11.47;;;24.30;66.80;;;;;;3611734;39;20487;-49
2021/05/27 03:31:16;;;;;;;11.63;11.23;;;24.30;66.80;;;;;;3611262;39;20540;-53
2021/05/27 03:33:45;;;;;;;11.90;11.40;;;24.30;66.80;;;;;;3610053;39;20482;-53
2021/05/27 03:36:13;;;;;;;11.80;11.30;;;24.30;66.80;;;;;;3621043;39;20474;-50
2021/05/27 03:38:44;;;;;;;12.10;11.60;;;24.30;66.80;;;;;;3611237;39;20933;-54
2021/05/27 03:41:11;;;;;;;12.27;11.83;;;24.30;66.80;;;;;;3621217;39;20470;-49
2021/05/27 03:43:38;;;;;;;11.70;11.30;;;24.40;66.90;;;;;;3610836;39;20508;-50
2021/05/27 03:46:04;;;;;;;12.60;12.10;;;24.40;66.90;;;;;;3620962;39;20467;-52
2021/05/27 03:48:34;;;;;;;12.93;12.23;;;24.40;66.80;;;;;;3621134;39;20479;-50
2021/05/27 03:51:01;;;;;;;12.00;11.60;;;24.40;66.90;;;;;;3619964;39;20533;-51
2021/05/27 03:53:32;;;;;;;12.50;12.10;;;24.40;66.80;;;;;;3620455;39;20751;-51
2021/05/27 03:56:05;;;;;;;12.00;11.60;;;24.40;66.80;;;;;;3620842;39;20483;-51
2021/05/27 04:01:23;;;;;;;11.93;11.53;;;24.40;66.70;;;;;;3610908;39;20490;-51
2021/05/27 04:07:11;;;;;;;12.60;12.10;;;24.40;66.70;;;;;;3619226;39;20538;-51
2021/05/27 04:09:39;;;;;;;12.87;12.37;;;24.40;66.70;;;;;;3619947;39;20553;-54
2021/05/27 04:17:38;;;;;;;12.70;12.27;;;24.50;66.70;;;;;;3620373;39;20831;-50
2021/05/27 04:20:09;;;;;;;13.00;12.53;;;24.50;66.60;;;;;;3620367;39;20487;-53
2021/05/27 04:22:35;;;;;;;13.00;12.50;;;24.50;66.60;;;;;;3619781;39;20495;-50
2021/05/27 04:25:03;;;;;;;13.10;12.60;;;24.50;66.50;;;;;;3619401;39;20468;-52
2021/05/27 04:27:30;;;;;;;13.23;12.73;;;24.60;66.70;;;;;;3618507;39;20599;-51
2021/05/27 04:29:56;;;;;;;12.90;12.50;;;24.60;66.60;;;;;;3618993;39;20486;-52
2021/05/27 04:35:08;;;;;;;13.23;12.73;;;24.60;66.50;;;;;;3618620;39;20532;-50
2021/05/27 04:37:35;;;;;;;12.67;12.17;;;24.60;66.40;;;;;;3618771;39;20861;-51
2021/05/27 04:40:02;;;;;;;13.00;12.50;;;24.60;66.40;;;;;;3618870;39;20488;-50
2021/05/27 04:42:31;;;;;;;13.00;12.60;;;24.60;66.40;;;;;;3617506;39;20476;-50
2021/05/27 04:45:01;;;;;;;13.57;13.07;;;24.70;66.40;;;;;;3617988;39;20580;-50
2021/05/27 04:47:28;;;;;;;13.87;13.37;;;24.70;66.40;;;;;;3616517;39;20475;-52
2021/05/27 04:49:56;;;;;;;13.40;12.80;;;24.70;66.40;;;;;;3617516;39;20869;-52
2021/05/27 04:52:23;;;;;;;13.17;12.60;;;24.70;66.30;;;;;;3616537;39;21163;-50
2021/05/27 04:54:49;;;;;;;13.17;12.33;;;24.70;66.30;;;;;;3616223;39;20484;-53
2021/05/27 04:57:18;;;;;;;12.93;12.43;;;24.70;66.20;;;;;;3615690;39;20572;-49
2021/05/27 04:59:45;;;;;;;12.80;12.30;;;24.80;66.30;;;;;;3624745;39;20478;-51
2021/05/27 05:02:12;;;;;;;12.93;12.50;;;24.80;66.30;;;;;;3625840;39;20480;-51
2021/05/27 05:04:40;;;;;;;12.70;12.30;;;24.80;66.30;;;;;;3627064;39;20904;-52
2021/05/27 05:07:09;;;;;;;11.90;11.50;;;24.80;66.20;;;;;;3625963;39;20815;-53
2021/05/27 05:09:37;;;;;;;12.80;12.30;;;24.80;66.20;;;;;;3625667;39;21068;-51
2021/05/27 05:12:04;;;;;;;12.27;11.87;;;24.80;66.10;;;;;;3626369;39;20726;-50
2021/05/27 05:14:31;;;;;;;12.53;12.07;;;24.80;66.00;;;;;;3623580;39;20519;-52
2021/05/27 05:17:01;;;;;;;11.80;11.40;;;24.90;66.10;;;;;;3622611;39;20873;-52
2021/05/27 05:19:29;;;;;;;12.80;12.20;;;24.90;66.00;;;;;;3618601;39;21300;-52
2021/05/27 05:21:58;;;;;;;12.63;12.17;;;24.90;65.90;;;;;;3620169;39;20487;-53
2021/05/27 05:24:25;;;;;;;12.10;11.67;;;25.00;66.00;;;;;;3623071;39;20532;-53
2021/05/27 05:26:52;;;;;;;12.63;12.20;;;25.00;65.90;;;;;;3622094;39;20582;-53
2021/05/27 05:29:24;;;;;;;12.27;11.77;;;25.00;65.80;;;;;;3622314;39;20478;-53
2021/05/27 05:31:54;;;;;;;12.50;12.00;;;25.00;65.80;;;;;;3624057;39;20477;-51
2021/05/27 05:34:22;;;;;;;12.47;11.97;;;25.00;65.70;;;;;;3621411;39;20482;-50
2021/05/27 05:36:50;;;;;;;13.10;12.40;;;25.00;65.70;;;;;;3621515;39;20491;-50
2021/05/27 05:39:17;;;;;;;12.60;12.20;;;25.00;65.70;;;;;;3620444;39;20579;-53
2021/05/27 05:41:45;;;;;;;13.30;12.80;;;25.00;65.70;;;;;;3622477;39;20479;-53
2021/05/27 05:44:13;;;;;;;12.30;11.80;;;25.00;65.70;;;;;;3621179;39;20482;-53
2021/05/27 05:46:41;;;;;;;12.90;12.30;;;25.00;65.70;;;;;;3620837;39;20819;-51
2021/05/27 05:49:10;;;;;;;12.30;11.90;;;25.10;65.70;;;;;;3620218;39;20489;-53
2021/05/27 05:51:38;;;;;;;12.67;11.97;;;25.10;66.50;;;;;;3618377;39;20233;-53
2021/05/27 05:54:05;;;;;;;13.27;12.77;;;25.10;65.60;;;;;;3619707;39;21132;-49
2021/05/27 05:56:32;;;;;;;12.40;12.00;;;25.10;65.60;;;;;;3618843;39;20470;-49
2021/05/27 05:59:10;;;;;;;12.67;12.20;;;25.20;65.70;;;;;;3623419;39;20486;-51
2021/05/27 06:01:43;;;;;;;12.73;12.23;;;25.20;65.60;;;;;;3615179;39;20491;-51
2021/05/27 06:04:14;;;;;;;12.90;12.40;;;25.20;65.50;;;;;;3618224;39;20474;-49
2021/05/27 06:06:59;;;;;;;13.07;12.47;;;25.20;65.60;;;;;;3616449;39;20470;-49
2021/05/27 06:09:28;;;;;;;11.87;11.37;;;25.20;65.60;;;;;;3613637;39;20479;-49
2021/05/27 06:11:55;;;;;;;12.73;12.23;;;25.10;65.60;;;;;;3612493;39;20490;-52
2021/05/27 06:14:22;;;;;;;12.07;11.57;;;25.10;65.60;;;;;;3614311;39;20485;-52
2021/05/27 06:16:50;;;;;;;12.30;11.70;;;25.10;65.70;;;;;;3614850;39;20493;-51
2021/05/27 06:19:17;;;;;;;13.10;12.40;;;25.10;65.70;;;;;;3611091;39;20476;-50
2021/05/27 06:21:56;;;;;;;12.60;12.10;;;25.10;65.70;;;;;;3601830;39;20509;-48
2021/05/27 06:24:41;;;;;;;13.60;12.43;;;25.10;65.80;;;;;;3609970;39;20466;-50
2021/05/27 06:27:08;;;;;;;13.10;12.50;;;25.10;65.90;;;;;;3598255;39;20575;-50
2021/05/27 06:29:34;;;;;;;13.37;12.67;;;25.10;66.00;;;;;;3609375;39;20480;-49
2021/05/27 06:32:03;;;;;;;12.97;12.10;;;25.10;66.10;;;;;;3602496;39;20482;-53
2021/05/27 06:34:33;;;;;;;14.03;12.73;;;25.10;66.20;;;;;;3605337;39;20572;-50
2021/05/27 06:37:02;;;;;;;13.00;12.20;;;25.10;66.30;;;;;;3602769;39;20506;-52
2021/05/27 06:39:30;;;;;;;13.87;12.57;;;25.10;66.50;;;;;;3606778;39;20488;-50
2021/05/27 06:41:57;;;;;;;14.10;13.10;;;25.20;66.60;;;;;;3613307;39;20928;-50
2021/05/27 06:44:24;;;;;;;14.57;12.90;;;25.20;66.70;;;;;;3612275;39;20482;-50
2021/05/27 06:46:51;;;;;;;13.70;12.60;;;25.20;66.70;;;;;;3613201;39;20527;-49
2021/05/27 06:49:20;;;;;;;15.00;13.67;;;25.20;66.50;;;;;;3613758;39;20474;-49
2021/05/27 06:51:47;;;;;;;13.67;12.83;;;25.20;66.40;;;;;;3605760;39;20470;-49
2021/05/27 06:54:15;;;;;;;13.87;12.93;;;25.30;66.30;;;;;;3612933;39;20820;-49
2021/05/27 06:56:48;;;;;;;12.80;12.00;;;25.20;66.00;;;;;;3605198;39;20532;-49
2021/05/27 06:59:15;;;;;;;12.70;11.70;;;25.20;65.70;;;;;;3609802;39;20510;-50
2021/05/27 07:01:42;;;;;;;11.83;11.33;;;25.20;65.60;;;;;;3578224;39;20924;-49
2021/05/27 07:04:09;;;;;;;12.37;11.63;;;25.20;65.50;;;;;;3601764;39;21619;-52
2021/05/27 07:06:38;;;;;;;12.37;11.40;;;25.20;65.50;;;;;;3602316;39;20486;-50
2021/05/27 07:09:08;;;;;;;12.00;11.30;;;25.20;65.40;;;;;;3603358;39;20478;-49
2021/05/27 07:11:37;;;;;;;11.90;11.40;;;25.20;65.30;;;;;;3608133;39;20942;-50
2021/05/27 07:14:06;;;;;;;10.70;10.20;;;25.20;65.20;;;;;;3613152;39;20903;-52
2021/05/27 07:16:33;;;;;;;11.07;10.50;;;25.20;65.10;;;;;;3611542;39;20478;-51
2021/05/27 07:19:01;;;;;;;10.83;10.27;;;25.20;65.00;;;;;;3613149;39;20628;-49
2021/05/27 07:21:27;;;;;;;11.30;10.87;;;25.20;64.80;;;;;;3614034;39;20503;-49
2021/05/27 07:23:54;;;;;;;10.40;10.00;;;25.10;64.50;;;;;;3610751;39;20479;-50
2021/05/27 07:26:24;;;;;;;10.60;10.17;;;25.10;64.40;;;;;;3607565;39;20486;-49
2021/05/27 07:28:51;;;;;;;11.07;10.40;;;25.10;64.20;;;;;;3608299;39;20482;-50
2021/05/27 07:31:19;;;;;;;10.87;10.47;;;25.10;64.20;;;;;;3610548;39;20567;-49
2021/05/27 07:33:46;;;;;;;10.30;9.90;;;25.10;64.10;;;;;;3610893;39;20482;-51
2021/05/27 07:36:16;;;;;;;10.87;10.30;;;25.10;64.00;;;;;;3610917;39;20476;-49
2021/05/27 07:38:44;;;;;;;10.43;10.13;;;25.10;64.00;;;;;;3608846;39;20482;-49
2021/05/27 07:41:11;;;;;;;10.73;10.30;;;25.10;63.90;;;;;;3610884;39;20536;-49
2021/05/27 07:43:41;;;;;;;10.90;10.57;;;25.10;63.90;;;;;;3601937;39;20506;-49
2021/05/27 07:46:09;;;;;;;11.20;10.50;;;25.00;63.60;;;;;;3609345;39;20474;-50
2021/05/27 07:48:36;;;;;;;11.13;10.83;;;25.00;63.50;;;;;;3607949;39;20490;-50
2021/05/27 07:51:05;;;;;;;11.30;10.80;;;25.00;63.30;;;;;;3608702;39;20532;-52
2021/05/27 07:53:31;;;;;;;11.30;10.80;;;25.00;63.00;;;;;;3609306;39;20522;-51
2021/05/27 07:55:59;;;;;;;11.30;10.80;;;25.00;62.90;;;;;;3612642;39;20508;-48
2021/05/27 07:58:27;;;;;;;11.27;10.87;;;25.00;63.00;;;;;;3615005;39;20493;-50
2021/05/27 08:00:56;;;;;;;10.80;10.40;;;25.00;62.90;;;;;;3614459;39;20478;-48
2021/05/27 08:03:23;;;;;;;10.97;10.57;;;25.00;62.80;;;;;;3616755;39;20462;-49
2021/05/27 08:05:49;;;;;;;11.77;11.30;;;25.00;62.80;;;;;;3613057;39;20478;-50
2021/05/27 08:08:17;;;;;;;10.90;10.60;;;25.00;62.80;;;;;;3609700;39;20497;-50
2021/05/27 08:10:46;;;;;;;11.43;10.90;;;25.00;62.80;;;;;;3615786;39;20494;-49
2021/05/27 08:13:13;;;;;;;11.40;11.00;;;25.00;62.70;;;;;;3615511;39;20494;-49
2021/05/27 08:15:43;;;;;;;11.53;11.13;;;25.00;62.50;;;;;;3613662;39;20478;-52
2021/05/27 08:18:11;;;;;;;11.70;11.30;;;24.90;61.90;;;;;;3611578;39;20482;-49
2021/05/27 08:20:39;;;;;;;11.13;10.83;;;24.90;61.90;;;;;;3604162;39;21187;-49
2021/05/27 08:23:05;;;;;;;11.07;10.57;;;24.90;61.70;;;;;;3608758;39;20489;-50
2021/05/27 08:25:33;;;;;;;11.20;10.80;;;24.90;61.70;;;;;;3602233;39;20967;-51
2021/05/27 08:27:59;;;;;;;11.00;10.67;;;24.90;61.90;;;;;;3608964;39;20638;-50
2021/05/27 08:30:26;;;;;;;10.90;10.60;;;24.90;61.90;;;;;;3607606;39;20490;-50
2021/05/27 08:32:56;;;;;;;11.20;10.80;;;24.90;61.70;;;;;;3590490;39;20601;-50
2021/05/27 08:35:23;;;;;;;10.73;10.43;;;24.90;61.40;;;;;;3590396;39;21163;-49
2021/05/27 08:37:51;;;;;;;11.20;10.80;;;24.90;61.40;;;;;;3587632;39;20480;-50
2021/05/27 08:40:18;;;;;;;10.73;10.43;;;24.90;61.40;;;;;;3588745;39;20491;-50
2021/05/27 08:42:48;;;;;;;10.53;10.23;;;24.90;61.30;;;;;;3584914;39;20674;-51
2021/05/27 08:45:16;;;;;;;10.47;10.17;;;24.90;61.30;;;;;;3578799;39;21263;-51
2021/05/27 08:47:45;;;;;;;10.90;10.40;;;24.90;61.20;;;;;;3575669;39;20536;-50
2021/05/27 08:50:13;;;;;;;10.68;10.38;;;24.90;61.10;;;;;;3579212;39;20480;-50
2021/05/27 08:52:42;;;;;;;10.10;9.80;;;24.90;60.90;;;;;;3580211;40;20243;-49
2021/05/27 08:55:10;;;;;;;10.20;9.80;;;24.90;60.90;;;;;;3574422;39;20748;-50
2021/05/27 08:57:37;;;;;;;10.70;10.20;;;24.90;60.90;;;;;;3573833;39;20481;-53
2021/05/27 09:00:06;;;;;;;11.50;11.00;;;24.90;60.70;;;;;;3571846;40;20485;-50
2021/05/27 09:02:52;;;;;;;10.53;10.03;;;24.90;60.70;;;;;;3573597;39;20614;-53
2021/05/27 09:05:19;;;;;;;10.70;10.37;;;24.90;60.70;;;;;;3582298;39;20484;-49
2021/05/27 09:07:47;;;;;;;11.30;10.90;;;24.90;60.50;;;;;;3581959;40;20485;-49
2021/05/27 09:10:14;;;;;;;10.93;10.63;;;24.90;60.50;;;;;;3582842;40;20761;-48
2021/05/27 09:12:42;;;;;;;10.87;10.57;;;24.90;60.60;;;;;;3579417;40;20481;-48
2021/05/27 09:15:21;;;;;;;10.90;10.50;;;24.80;60.30;;;;;;3579300;40;20529;-49
2021/05/27 09:17:51;;;;;;;10.43;10.13;;;24.90;60.10;;;;;;3583087;40;20492;-48
2021/05/27 09:20:21;;;;;;;11.10;10.70;;;24.90;60.00;;;;;;3577871;39;20493;-47
2021/05/27 09:23:07;;;;;;;11.90;11.40;;;24.90;59.90;;;;;;3583002;40;20732;-47
2021/05/27 09:25:35;;;;;;;12.00;11.40;;;24.90;59.80;;;;;;3579884;40;20607;-48
2021/05/27 09:28:03;;;;;;;11.53;11.13;;;24.90;59.70;;;;;;3578845;40;20488;-49
2021/05/27 09:30:30;;;;;;;11.50;11.20;;;24.90;59.80;;;;;;3580049;40;20742;-51
2021/05/27 09:32:56;;;;;;;12.20;11.73;;;24.90;59.70;;;;;;3585919;39;20484;-49
2021/05/27 09:35:27;;;;;;;11.30;11.00;;;24.90;59.80;;;;;;3588105;39;20510;-49
2021/05/27 09:37:55;;;;;;;11.57;11.07;;;24.80;59.80;;;;;;3585134;39;20773;-49
2021/05/27 09:40:31;;;;;;;11.80;11.30;;;24.80;60.00;;;;;;3586343;39;20580;-52
2021/05/27 09:42:59;;;;;;;11.70;11.40;;;24.80;60.30;;;;;;3589610;39;20700;-49
2021/05/27 09:45:27;;;;;;;11.60;11.10;;;24.80;60.30;;;;;;3583355;39;20599;-49
2021/05/27 09:47:54;;;;;;;11.33;11.03;;;24.70;60.50;;;;;;3586569;39;20476;-50
2021/05/27 09:50:36;;;;;;;11.27;10.90;;;24.70;60.60;;;;;;3576347;39;20558;-50
2021/05/27 09:53:16;;;;;;;11.70;11.20;;;24.70;60.80;;;;;;3588507;39;20479;-51
2021/05/27 09:55:44;;;;;;;11.30;10.90;;;24.70;61.00;;;;;;3587702;39;20492;-53
2021/05/27 09:58:12;;;;;;;11.30;10.90;;;24.70;61.10;;;;;;3588915;39;20800;-52
2021/05/27 10:00:39;;;;;;;11.20;10.80;;;24.70;61.20;;;;;;3583109;39;20624;-50
2021/05/27 10:03:30;;;;;;;11.30;10.90;;;24.70;61.30;;;;;;3580301;39;20490;-48
2021/05/27 10:05:59;;;;;;;11.60;10.80;;;24.70;61.40;;;;;;3581652;39;20480;-52
2021/05/27 10:08:29;;;;;;;11.47;11.07;;;24.60;61.40;;;;;;3591426;39;20761;-48
2021/05/27 10:10:56;;;;;;;11.17;10.67;;;24.60;61.60;;;;;;3591714;39;20490;-48
2021/05/27 10:13:28;;;;;;;11.30;10.90;;;24.60;61.70;;;;;;3593360;39;20468;-49
2021/05/27 10:15:55;;;;;;;11.03;10.63;;;24.60;61.80;;;;;;3590334;39;20793;-47
2021/05/27 10:18:22;;;;;;;11.43;10.93;;;24.60;61.80;;;;;;3592586;39;20645;-48
2021/05/27 10:20:51;;;;;;;10.97;10.47;;;24.60;61.80;;;;;;3589577;39;20495;-48
2021/05/27 10:23:18;;;;;;;11.10;10.80;;;24.60;61.90;;;;;;3589641;39;20487;-50
2021/05/27 10:25:46;;;;;;;11.13;10.73;;;24.50;61.80;;;;;;3592491;39;20546;-49
2021/05/27 10:28:17;;;;;;;11.50;11.17;;;24.50;61.90;;;;;;3586842;39;20733;-49
2021/05/27 10:30:45;;;;;;;10.90;10.60;;;24.60;62.10;;;;;;3592719;39;20842;-50
2021/05/27 10:33:18;;;;;;;11.43;11.07;;;24.60;62.40;;;;;;3591517;39;20588;-48
2021/05/27 10:35:47;;;;;;;10.90;10.40;;;24.60;62.10;;;;;;3591852;39;20926;-49
2021/05/27 10:38:16;;;;;;;11.00;10.60;;;24.60;62.10;;;;;;3590957;39;20484;-49
2021/05/27 10:40:48;;;;;;;11.60;11.17;;;24.60;62.20;;;;;;3602864;39;20484;-49
2021/05/27 10:43:16;;;;;;;10.60;10.20;;;24.50;62.20;;;;;;3604396;39;20472;-50
2021/05/27 10:46:01;;;;;;;11.53;11.13;;;24.50;62.30;;;;;;3603848;39;20483;-49
2021/05/27 10:48:29;;;;;;;11.60;11.20;;;24.40;62.50;;;;;;3594739;39;20883;-49
2021/05/27 10:51:04;;;;;;;11.50;11.00;;;24.40;62.60;;;;;;3604277;39;20464;-50
2021/05/27 10:53:53;;;;;;;11.00;10.60;;;24.40;62.70;;;;;;3605294;39;20494;-51
2021/05/27 10:56:44;;;;;;;10.67;10.37;;;24.40;62.80;;;;;;3605729;39;20907;-48
2021/05/27 10:59:15;;;;;;;11.13;10.50;;;24.40;62.70;;;;;;3589194;39;20502;-51
2021/05/27 11:02:00;;;;;;;10.87;10.40;;;24.40;62.90;;;;;;3598277;39;20980;-54
2021/05/27 11:04:40;;;;;;;11.60;11.20;;;24.30;62.90;;;;;;3600470;39;20498;-53
2021/05/27 11:07:21;;;;;;;11.70;11.30;;;24.30;63.10;;;;;;3600751;39;20483;-53
2021/05/27 11:09:50;;;;;;;11.80;11.23;;;24.40;63.20;;;;;;3600721;39;20793;-51
2021/05/27 11:12:27;;;;;;;11.80;11.40;;;24.40;63.20;;;;;;3599287;39;20792;-52
2021/05/27 11:15:14;;;;;;;11.77;11.37;;;24.30;63.30;;;;;;3590943;39;20482;-50
2021/05/27 11:17:41;;;;;;;12.40;12.00;;;24.30;63.40;;;;;;3600253;39;20732;-52
2021/05/27 11:20:12;;;;;;;12.47;12.07;;;24.30;63.40;;;;;;3599481;39;20471;-51
2021/05/27 11:22:53;;;;;;;11.67;11.27;;;24.30;63.50;;;;;;3598241;39;20475;-52
2021/05/27 11:25:25;;;;;;;12.40;11.93;;;24.40;63.60;;;;;;3601326;39;20515;-50
2021/05/27 11:27:54;;;;;;;12.00;11.60;;;24.30;63.50;;;;;;3596693;39;20483;-50
2021/05/27 11:30:23;;;;;;;12.57;12.10;;;24.30;63.60;;;;;;3600535;39;20486;-51
2021/05/27 11:32:52;;;;;;;12.33;11.83;;;24.40;63.70;;;;;;3601878;39;20567;-54
2021/05/27 11:35:20;;;;;;;11.90;11.50;;;24.40;63.70;;;;;;3600870;39;20475;-51
2021/05/27 11:37:49;;;;;;;12.10;11.60;;;24.40;63.70;;;;;;3600599;39;20549;-54
2021/05/27 11:40:17;;;;;;;12.10;11.70;;;24.40;63.70;;;;;;3601662;39;20479;-53
2021/05/27 11:42:48;;;;;;;12.00;11.60;;;24.40;63.70;;;;;;3599900;39;20482;-51
2021/05/27 11:45:16;;;;;;;11.70;11.30;;;24.40;63.70;;;;;;3601121;39;20483;-54
2021/05/27 11:47:43;;;;;;;12.10;11.60;;;24.40;63.70;;;;;;3602157;39;20494;-54
2021/05/27 11:50:12;;;;;;;12.43;11.93;;;24.40;63.70;;;;;;3599714;39;21313;-51
2021/05/27 11:52:39;;;;;;;12.20;11.70;;;24.40;63.80;;;;;;3587922;39;20512;-50
2021/05/27 11:55:11;;;;;;;12.77;12.17;;;24.40;63.80;;;;;;3598392;39;20499;-50
2021/05/27 11:57:43;;;;;;;11.57;11.27;;;24.40;63.80;;;;;;3598209;39;20568;-50
2021/05/27 12:00:13;;;;;;;11.50;11.00;;;24.50;63.90;;;;;;3600656;39;21021;-52
2021/05/27 12:02:44;;;;;;;10.43;10.13;;;24.50;63.90;;;;;;3601422;39;20495;-50
2021/05/27 12:05:23;;;;;;;11.07;10.50;;;24.50;63.90;;;;;;3600328;39;20548;-49
2021/05/27 12:08:00;;;;;;;11.07;10.67;;;24.50;63.90;;;;;;3603104;39;20474;-53
2021/05/27 12:10:28;;;;;;;11.27;10.87;;;24.50;64.00;;;;;;3605629;39;20616;-49
2021/05/27 12:12:55;;;;;;;11.47;11.07;;;24.50;64.10;;;;;;3598839;39;20499;-49
2021/05/27 12:15:22;;;;;;;11.30;10.90;;;24.40;64.10;;;;;;3601062;39;20471;-52
2021/05/27 12:17:52;;;;;;;10.90;10.57;;;24.50;65.10;;;;;;3602215;39;20521;-53
2021/05/27 12:20:27;;;;;;;10.40;10.10;;;24.40;64.30;;;;;;3600642;39;20503;-50
2021/05/27 12:22:55;;;;;;;11.10;10.60;;;24.40;64.30;;;;;;3600842;39;20543;-49
2021/05/27 12:25:24;;;;;;;11.27;10.77;;;24.40;64.30;;;;;;3599363;39;20482;-49
2021/05/27 12:27:52;;;;;;;10.57;10.27;;;24.40;64.30;;;;;;3597757;39;20560;-51
2021/05/27 12:30:22;;;;;;;10.83;10.43;;;24.40;64.40;;;;;;3593221;39;20726;-50
2021/05/27 12:32:51;;;;;;;10.97;10.57;;;24.40;64.40;;;;;;3601981;39;20523;-50
2021/05/27 12:35:25;;;;;;;11.57;11.17;;;24.40;64.40;;;;;;3596658;39;20512;-49
2021/05/27 12:37:55;;;;;;;11.13;10.73;;;24.40;64.60;;;;;;3600134;39;20914;-49
2021/05/27 12:40:25;;;;;;;11.27;10.87;;;24.40;64.60;;;;;;3599435;39;20495;-49
2021/05/27 12:42:56;;;;;;;10.83;10.53;;;24.40;64.70;;;;;;3600373;39;20483;-49
2021/05/27 12:45:36;;;;;;;10.90;10.50;;;24.40;64.70;;;;;;3599350;39;20487;-53
2021/05/27 12:48:10;;;;;;;11.40;11.00;;;24.40;64.80;;;;;;3600928;39;20814;-51
2021/05/27 12:50:39;;;;;;;11.20;10.80;;;24.40;64.70;;;;;;3599349;39;20472;-50
2021/05/27 12:53:06;;;;;;;10.97;10.57;;;24.40;64.70;;;;;;3601448;39;20934;-50
2021/05/27 12:55:34;;;;;;;11.93;11.33;;;24.40;64.80;;;;;;3602085;39;20864;-52